Main page
METAR-TAF:

METAR-TAF

Airports :

McGhee Tyson Airport

Knoxville, Tennessee, United States

latitude: 35-49-05N, longitude: 083-59-09W, elevation: 981 ft

Current weather observation

The report was made 45 minutes ago, at 03:53 UTC
Wind 3 mph from the Northwest
Temperature 54°F
Humidity 67%
Pressure 30.05 in. Hg
Visibility: 10 miles
Overcast at a height of 8000 ft

METAR: KTYS 280353Z 32003KT 10SM OVC080 12/06 A3005 RMK AO2 SLP173 T01170061

Time: 23:38 (04:38 UTC)

Forecast

The report was made 5 hours and 18 minutes ago, at 23:20 UTC
Forecast valid from 28 at 00 UTC to 28 at 24 UTC
Wind 0 mph from the North
Visibility: 6 miles
Broken clouds at a height of 7000 ft
From 28 at 1100 UTC
Wind 0 mph from the North
Visibility: 6 miles
Scattered clouds at a height of 6000 ft
From 28 at 1500 UTC
Wind 6 mph from the North/Northeast
Visibility: 6 miles
Scattered clouds at a height of 25000 ft

TAF: KTYS 272320Z 2800/2824 00000KT P6SM BKN070 FM281100 00000KT P6SM SCT060 FM281500 03005KT P6SM SCT250

Weather observations and forecasts of more than 4000 airports (METAR and TAF reports).

The available stations are represented by yellow and red dots on the map.

Hover mouse over dot to see the name of the station.

Then click to see weather observations and forecasts.

To change the map : click on the green buttons with a black cross to zoom in, on the green button with a dash to zoom out, or on the green arrows for adjacent maps.


METAR-TAF: